createdAt,value
2018-09-10T00:01:08.909Z,65.10
2018-09-10T00:03:37.741Z,66.01
2018-09-10T00:06:06.615Z,66.38
2018-09-10T00:08:35.530Z,66.83
2018-09-10T00:11:04.362Z,67.28
2018-09-10T00:13:33.251Z,67.89
2018-09-10T00:16:02.076Z,68.51
2018-09-10T00:18:30.924Z,68.00
2018-09-10T00:20:59.790Z,68.34
2018-09-10T00:23:28.615Z,68.56
2018-09-10T00:25:57.438Z,67.04
2018-09-10T00:28:26.328Z,66.56
2018-09-10T00:30:55.167Z,66.32
2018-09-10T00:33:26.233Z,67.84
2018-09-10T00:35:55.151Z,68.49
2018-09-10T00:38:23.957Z,69.02
2018-09-10T00:40:52.783Z,69.23
2018-09-10T00:43:21.782Z,69.89
2018-09-10T00:45:50.611Z,70.67
2018-09-10T00:48:19.444Z,71.07
2018-09-10T00:50:48.307Z,70.99
2018-09-10T00:53:17.111Z,71.26
2018-09-10T00:55:45.927Z,71.39
2018-09-10T00:58:14.950Z,71.09
2018-09-10T01:00:43.823Z,70.53
2018-09-10T01:03:12.644Z,70.21
2018-09-10T01:05:41.507Z,70.87
2018-09-10T01:08:10.351Z,69.68
2018-09-10T01:10:39.191Z,68.56
2018-09-10T01:13:08.110Z,67.91
2018-09-10T01:15:36.920Z,68.89
2018-09-10T01:18:05.803Z,68.51
2018-09-10T01:20:34.634Z,67.51
2018-09-10T01:23:03.453Z,66.89
2018-09-10T01:25:32.339Z,67.20
2018-09-10T01:28:01.162Z,67.28
2018-09-10T01:30:29.985Z,67.17
2018-09-10T01:32:58.899Z,67.90
2018-09-10T01:35:29.205Z,67.97
2018-09-10T01:37:58.067Z,68.26
2018-09-10T01:40:26.910Z,68.72
2018-09-10T01:42:55.880Z,68.48
2018-09-10T01:45:24.696Z,68.29
2018-09-10T01:47:53.582Z,67.30
2018-09-10T01:50:22.393Z,67.86
2018-09-10T01:52:51.206Z,67.72
2018-09-10T01:55:20.076Z,67.39
2018-09-10T01:57:48.886Z,67.09
2018-09-10T02:00:17.705Z,67.37
2018-09-10T02:02:46.653Z,67.73
2018-09-10T02:05:15.527Z,67.26
2018-09-10T02:07:44.340Z,68.00
2018-09-10T02:10:13.322Z,67.83
2018-09-10T02:12:42.151Z,67.86
2018-09-10T02:15:10.990Z,68.21
2018-09-10T02:17:39.870Z,68.82
2018-09-10T02:20:08.715Z,68.81
2018-09-10T02:22:37.685Z,68.84
2018-09-10T02:25:06.599Z,69.15
2018-09-10T02:27:35.440Z,69.91
2018-09-10T02:30:04.354Z,69.36
2018-09-10T02:32:33.231Z,69.12
2018-09-10T02:35:02.119Z,68.47
2018-09-10T02:37:31.035Z,68.35
2018-09-10T02:39:59.954Z,68.59
2018-09-10T02:42:28.807Z,68.13
2018-09-10T02:44:57.820Z,67.83
2018-09-10T02:47:26.735Z,67.24
2018-09-10T02:49:55.887Z,66.77
2018-09-10T02:52:24.739Z,67.24
2018-09-10T02:54:53.617Z,67.31
2018-09-10T02:57:22.451Z,68.15
2018-09-10T02:59:51.264Z,68.66
2018-09-10T03:02:20.159Z,68.33
2018-09-10T03:04:48.988Z,68.31
2018-09-10T03:07:17.793Z,67.54
2018-09-10T03:09:46.691Z,67.94
2018-09-10T03:12:15.506Z,68.51
2018-09-10T03:14:44.415Z,68.86
2018-09-10T03:17:14.514Z,68.59
2018-09-10T03:19:43.333Z,68.03
2018-09-10T03:22:12.219Z,67.72
2018-09-10T03:24:41.054Z,67.98
2018-09-10T03:27:09.895Z,67.72
2018-09-10T03:29:38.838Z,67.12
2018-09-10T03:32:07.860Z,66.97
2018-09-10T03:34:36.694Z,67.00
2018-09-10T03:37:06.029Z,67.08
2018-09-10T03:39:34.906Z,66.56
2018-09-10T03:42:03.742Z,66.01
2018-09-10T03:44:32.749Z,66.46
2018-09-10T03:47:01.603Z,66.69
2018-09-10T03:49:30.520Z,66.09
2018-09-10T03:51:59.398Z,65.63
2018-09-10T03:54:28.266Z,65.98
2018-09-10T03:56:57.076Z,65.72
2018-09-10T03:59:26.048Z,66.10
2018-09-10T04:01:54.882Z,66.18
2018-09-10T04:04:23.785Z,66.46
2018-09-10T04:06:54.037Z,66.58
2018-09-10T04:09:22.858Z,66.77
2018-09-10T04:11:51.734Z,66.28
2018-09-10T04:14:20.559Z,65.46
2018-09-10T04:16:49.385Z,65.40
2018-09-10T04:19:18.408Z,64.79
2018-09-10T04:21:47.247Z,64.56
2018-09-10T04:24:16.072Z,65.17
2018-09-10T04:26:45.026Z,64.72
2018-09-10T04:29:13.890Z,65.52
2018-09-10T04:31:42.681Z,65.35
2018-09-10T04:34:11.531Z,65.42
2018-09-10T04:36:40.354Z,65.62
2018-09-10T04:39:10.518Z,65.22
2018-09-10T04:41:41.966Z,64.88
2018-09-10T04:44:10.777Z,63.99
2018-09-10T04:46:40.161Z,64.02
2018-09-10T04:49:09.915Z,63.89
2018-09-10T04:51:38.711Z,63.56
2018-09-10T04:54:07.517Z,63.17
2018-09-10T04:56:37.690Z,63.01
2018-09-10T04:59:06.518Z,63.09
2018-09-10T05:01:35.356Z,63.31
2018-09-10T05:04:04.263Z,63.99
2018-09-10T05:06:33.130Z,63.25
2018-09-10T05:09:01.934Z,62.76
2018-09-10T05:11:30.786Z,63.02
2018-09-10T05:13:59.579Z,61.78
2018-09-10T05:16:28.380Z,62.31
2018-09-10T05:18:57.233Z,61.01
2018-09-10T05:21:26.039Z,60.58
2018-09-10T05:23:54.840Z,60.32
2018-09-10T05:26:23.695Z,59.31
2018-09-10T05:28:52.503Z,60.28
2018-09-10T05:31:21.299Z,57.96
2018-09-10T05:33:50.163Z,57.67
2018-09-10T05:36:18.998Z,56.59
2018-09-10T05:38:47.835Z,56.47
2018-09-10T05:41:16.673Z,56.65
2018-09-10T05:43:45.500Z,56.44
2018-09-10T05:46:14.323Z,56.27
2018-09-10T05:48:43.222Z,56.33
2018-09-10T05:51:12.027Z,56.37
2018-09-10T05:53:40.863Z,56.07
2018-09-10T05:56:10.921Z,55.10
2018-09-10T05:58:39.754Z,55.81
2018-09-10T06:01:08.618Z,55.30
2018-09-10T06:03:37.483Z,55.26
2018-09-10T06:06:06.372Z,55.20
2018-09-10T06:08:35.241Z,54.75
2018-09-10T06:11:04.165Z,53.39
2018-09-10T06:13:34.257Z,53.85
2018-09-10T06:16:04.372Z,54.01
2018-09-10T06:18:33.234Z,53.82
2018-09-10T06:21:02.055Z,53.41
2018-09-10T06:23:30.900Z,53.17
2018-09-10T06:26:04.289Z,53.34
2018-09-10T06:28:34.385Z,52.39
2018-09-10T06:31:03.216Z,52.62
2018-09-10T06:33:32.099Z,51.93
2018-09-10T06:36:00.960Z,51.99
2018-09-10T06:38:29.799Z,51.15
2018-09-10T06:40:58.648Z,51.17
2018-09-10T06:43:27.490Z,52.15
2018-09-10T06:45:56.288Z,50.92
2018-09-10T06:48:25.146Z,48.96
2018-09-10T06:50:54.109Z,47.61
2018-09-10T06:53:23.050Z,46.29
2018-09-10T06:55:53.127Z,46.57
2018-09-10T06:58:22.329Z,46.99
2018-09-10T07:00:51.372Z,46.23
2018-09-10T07:03:20.275Z,45.07
2018-09-10T07:05:49.183Z,44.32
2018-09-10T07:08:20.622Z,44.89
2018-09-10T07:10:49.556Z,43.91
2018-09-10T07:13:18.511Z,44.05
2018-09-10T07:15:48.480Z,44.58
2018-09-10T07:18:17.360Z,44.46
2018-09-10T07:20:46.231Z,44.02
2018-09-10T07:23:15.081Z,43.12
2018-09-10T07:25:43.892Z,42.86
2018-09-10T07:28:13.046Z,42.94
2018-09-10T07:30:41.961Z,42.83
2018-09-10T07:33:10.870Z,42.26
2018-09-10T07:35:39.723Z,42.31
2018-09-10T07:38:08.531Z,43.05
2018-09-10T07:40:38.832Z,43.50
2018-09-10T07:43:07.683Z,42.64
2018-09-10T07:45:36.663Z,41.77
2018-09-10T07:48:05.865Z,41.81
2018-09-10T07:50:34.720Z,41.06
2018-09-10T07:53:03.588Z,40.91
2018-09-10T07:55:33.703Z,41.04
2018-09-10T07:58:02.521Z,40.04
2018-09-10T08:00:31.414Z,39.69
2018-09-10T08:03:01.996Z,40.04
2018-09-10T08:05:30.820Z,40.58
2018-09-10T08:07:59.692Z,40.02
2018-09-10T08:10:29.929Z,39.89
2018-09-10T08:12:58.779Z,39.85
2018-09-10T08:15:27.780Z,39.74
2018-09-10T08:17:56.781Z,40.12
2018-09-10T08:20:25.634Z,39.71
2018-09-10T08:22:54.507Z,39.68
2018-09-10T08:25:23.355Z,39.75
2018-09-10T08:27:52.311Z,39.44
2018-09-10T08:30:21.258Z,39.14
2018-09-10T08:32:50.103Z,39.39
2018-09-10T08:35:18.963Z,38.73
2018-09-10T08:37:49.418Z,40.01
2018-09-10T08:40:18.287Z,39.36
2018-09-10T08:42:47.142Z,38.60
2018-09-10T08:45:16.083Z,38.75
2018-09-10T08:47:44.938Z,38.46
2018-09-10T08:50:13.806Z,38.09
2018-09-10T08:52:42.666Z,37.69
2018-09-10T08:55:11.636Z,37.32
2018-09-10T08:57:41.220Z,37.93
2018-09-10T09:00:11.648Z,36.65
2018-09-10T09:02:40.661Z,38.72
2018-09-10T09:05:09.490Z,38.79
2018-09-10T09:07:38.755Z,39.35
2018-09-10T09:10:07.867Z,39.04
2018-09-10T09:12:36.726Z,38.17
2018-09-10T09:15:05.696Z,38.23
2018-09-10T09:17:34.869Z,38.18
2018-09-10T09:20:03.762Z,37.80
2018-09-10T09:22:33.847Z,38.07
2018-09-10T09:25:02.684Z,37.55
2018-09-10T09:27:31.547Z,36.56
2018-09-10T09:30:01.922Z,36.91
2018-09-10T09:32:30.846Z,36.60
2018-09-10T09:35:00.057Z,35.55
2018-09-10T09:38:34.216Z,35.66
2018-09-10T09:41:08.103Z,35.98
2018-09-10T09:43:42.125Z,35.79
2018-09-10T09:46:13.505Z,35.43
2018-09-10T09:48:42.402Z,36.70
2018-09-10T09:51:11.946Z,36.26
2018-09-10T09:53:40.797Z,35.67
2018-09-10T09:56:09.782Z,36.15
2018-09-10T09:58:38.664Z,35.96
2018-09-10T10:01:13.057Z,36.64
2018-09-10T10:03:46.928Z,36.21
2018-09-10T10:06:15.906Z,35.50
2018-09-10T10:08:44.759Z,35.69
2018-09-10T10:11:13.631Z,36.28
2018-09-10T10:13:42.508Z,35.41
2018-09-10T10:16:11.347Z,34.54
2018-09-10T10:18:40.192Z,34.32
2018-09-10T10:21:09.393Z,34.49
2018-09-10T10:23:38.757Z,33.63
2018-09-10T10:26:07.632Z,33.71
2018-09-10T10:28:36.592Z,34.21
2018-09-10T10:31:05.437Z,33.83
2018-09-10T10:33:34.280Z,31.46
2018-09-10T10:36:03.182Z,31.45
2018-09-10T10:38:32.061Z,30.35
2018-09-10T10:41:01.024Z,30.82
2018-09-10T10:43:29.934Z,31.51
2018-09-10T10:45:59.035Z,31.52
2018-09-10T10:48:29.114Z,30.32
2018-09-10T10:50:57.993Z,28.76
2018-09-10T10:53:26.814Z,27.91
2018-09-10T10:55:55.715Z,27.87
2018-09-10T10:58:24.635Z,27.15
2018-09-10T11:00:53.490Z,26.84
2018-09-10T11:03:23.653Z,26.38
2018-09-10T11:05:53.731Z,26.75
2018-09-10T11:08:22.581Z,27.69
2018-09-10T11:10:52.696Z,26.66
2018-09-10T11:13:21.540Z,26.89
2018-09-10T11:15:50.412Z,25.70
2018-09-10T11:18:19.320Z,25.39
2018-09-10T11:20:48.161Z,25.80
2018-09-10T11:23:17.056Z,24.83
2018-09-10T11:25:46.044Z,25.08
2018-09-10T11:28:14.900Z,25.38
2018-09-10T11:30:43.787Z,28.84
2018-09-10T11:33:14.056Z,31.42
2018-09-10T11:35:42.946Z,32.16
2018-09-10T11:38:11.775Z,27.31
2018-09-10T11:40:40.624Z,25.95
2018-09-10T11:43:09.586Z,27.20
2018-09-10T11:45:38.452Z,26.63
2018-09-10T11:48:07.345Z,27.01
2018-09-10T11:50:37.638Z,28.40
2018-09-10T11:53:06.543Z,26.72
2018-09-10T11:55:35.595Z,27.00
2018-09-10T11:58:04.627Z,27.19
2018-09-10T12:00:33.589Z,26.95
2018-09-10T12:03:02.443Z,27.40
2018-09-10T12:05:31.324Z,27.84
2018-09-10T12:08:00.151Z,27.22
2018-09-10T12:10:29.014Z,26.73
2018-09-10T12:13:00.588Z,25.64
2018-09-10T12:15:29.563Z,26.40
2018-09-10T12:17:58.415Z,25.51
2018-09-10T12:20:28.696Z,26.79
2018-09-10T12:22:58.113Z,25.64
2018-09-10T12:25:27.011Z,25.24
2018-09-10T12:27:55.892Z,25.74
2018-09-10T12:30:24.720Z,26.11
2018-09-10T12:32:53.655Z,25.47
2018-09-10T12:35:23.778Z,25.63
2018-09-10T12:37:52.772Z,24.52
2018-09-10T12:40:21.630Z,24.87
2018-09-10T12:42:50.478Z,25.69
2018-09-10T12:45:19.319Z,25.74
2018-09-10T12:47:48.207Z,25.39
2018-09-10T12:50:17.039Z,26.36
2018-09-10T12:52:45.959Z,26.97
2018-09-10T12:55:14.884Z,26.73
2018-09-10T12:57:43.755Z,26.63
2018-09-10T13:00:12.685Z,26.29
2018-09-10T13:02:41.629Z,25.55
2018-09-10T13:05:10.458Z,23.01
2018-09-10T13:07:39.506Z,20.79
2018-09-10T13:10:08.426Z,21.42
2018-09-10T13:12:37.329Z,22.18
2018-09-10T13:15:07.586Z,22.56
2018-09-10T13:17:36.530Z,24.70
2018-09-10T13:20:05.511Z,27.64
2018-09-10T13:22:34.466Z,27.40
2018-09-10T13:25:03.340Z,27.22
2018-09-10T13:27:32.259Z,27.25
2018-09-10T13:30:01.109Z,26.68
2018-09-10T13:32:30.090Z,27.15
2018-09-10T13:34:58.959Z,27.68
2018-09-10T13:37:27.849Z,27.32
2018-09-10T13:39:56.833Z,27.10
2018-09-10T13:42:25.678Z,26.71
2018-09-10T13:44:54.548Z,26.29
2018-09-10T13:47:23.526Z,26.83
2018-09-10T13:49:52.448Z,26.80
2018-09-10T13:52:21.385Z,27.50
2018-09-10T13:54:50.330Z,27.77
2018-09-10T13:57:19.238Z,28.94
2018-09-10T13:59:48.220Z,29.75
2018-09-10T14:02:18.348Z,28.73
2018-09-10T14:04:47.265Z,27.59
2018-09-10T14:07:16.130Z,27.07
2018-09-10T14:09:46.345Z,26.70
2018-09-10T14:12:15.199Z,27.33
2018-09-10T14:14:44.077Z,27.25
2018-09-10T14:17:13.299Z,27.05
2018-09-10T14:19:42.130Z,27.39
2018-09-10T14:22:11.084Z,27.91
2018-09-10T14:24:41.293Z,28.10
2018-09-10T14:27:11.426Z,28.57
2018-09-10T14:29:40.306Z,28.67
2018-09-10T14:32:10.591Z,28.66
2018-09-10T14:34:39.538Z,27.86
2018-09-10T14:37:08.441Z,28.79
2018-09-10T14:39:38.661Z,27.69
2018-09-10T14:42:07.594Z,29.07
2018-09-10T14:44:36.498Z,30.80
2018-09-10T14:47:05.470Z,29.60
2018-09-10T14:49:34.358Z,28.80
2018-09-10T14:52:03.254Z,28.80
2018-09-10T14:54:32.159Z,29.83
2018-09-10T14:57:01.135Z,28.60
2018-09-10T14:59:30.021Z,28.00
2018-09-10T15:01:58.913Z,28.08
2018-09-10T15:04:27.870Z,29.03
2018-09-10T15:06:56.760Z,28.51
2018-09-10T15:09:25.681Z,28.58
2018-09-10T15:11:54.596Z,29.39
2018-09-10T15:14:25.055Z,29.12
2018-09-10T15:16:53.869Z,29.60
2018-09-10T15:19:22.758Z,28.87
2018-09-10T15:21:51.680Z,28.45
2018-09-10T15:24:20.629Z,29.48
2018-09-10T15:26:49.533Z,29.50
2018-09-10T15:29:21.162Z,29.45
2018-09-10T15:31:50.064Z,30.06
2018-09-10T15:34:20.262Z,30.10
2018-09-10T15:36:49.141Z,29.55
2018-09-10T15:39:19.264Z,29.95
2018-09-10T15:41:48.112Z,29.92
2018-09-10T15:44:16.948Z,30.12
2018-09-10T15:46:45.878Z,29.86
2018-09-10T15:49:14.757Z,30.30
2018-09-10T15:51:44.866Z,30.81
2018-09-10T15:54:13.749Z,30.69
2018-09-10T15:56:43.096Z,31.27
2018-09-10T15:59:14.624Z,31.31
2018-09-10T16:01:43.690Z,31.71
2018-09-10T16:04:12.642Z,31.53
2018-09-10T16:06:41.779Z,32.25
2018-09-10T16:09:10.813Z,32.31
2018-09-10T16:11:39.677Z,32.03
2018-09-10T16:14:08.589Z,32.05
2018-09-10T16:16:37.468Z,32.56
2018-09-10T16:19:06.337Z,32.82
2018-09-10T16:21:35.285Z,32.17
2018-09-10T16:24:04.223Z,32.52
2018-09-10T16:26:33.102Z,32.99
2018-09-10T16:29:02.617Z,33.87
2018-09-10T16:31:31.726Z,33.87
2018-09-10T16:34:00.671Z,34.84
2018-09-10T16:36:29.576Z,38.20
2018-09-10T16:38:58.495Z,39.41
2018-09-10T16:41:27.346Z,42.14
2018-09-10T16:43:56.212Z,42.58
2018-09-10T16:46:25.268Z,44.19
2018-09-10T16:48:54.234Z,44.95
2018-09-10T16:51:23.090Z,45.48
2018-09-10T16:53:51.929Z,45.53
2018-09-10T16:56:22.315Z,45.35
2018-09-10T16:58:51.207Z,45.52
2018-09-10T17:01:20.078Z,46.13
2018-09-10T17:03:50.157Z,46.75
2018-09-10T17:06:19.021Z,46.55
2018-09-10T17:08:47.950Z,46.84
2018-09-10T17:11:17.012Z,45.92
2018-09-10T17:13:45.904Z,46.27
2018-09-10T17:16:15.089Z,46.56
2018-09-10T17:18:44.061Z,47.02
2018-09-10T17:21:12.985Z,47.27
2018-09-10T17:23:41.866Z,47.62
2018-09-10T17:26:10.802Z,47.46
2018-09-10T17:28:39.674Z,47.38
2018-09-10T17:31:08.502Z,47.79
2018-09-10T17:33:38.907Z,47.19
2018-09-10T17:36:09.013Z,47.48
2018-09-10T17:38:37.965Z,47.39
2018-09-10T17:41:06.820Z,47.90
2018-09-10T17:43:35.719Z,47.84
2018-09-10T17:46:04.559Z,48.05
2018-09-10T17:48:33.518Z,47.91
2018-09-10T17:51:02.458Z,48.56
2018-09-10T17:53:31.336Z,48.18
2018-09-10T17:56:00.331Z,48.34
2018-09-10T17:58:29.300Z,48.37
2018-09-10T18:00:58.263Z,48.63
2018-09-10T18:03:27.187Z,47.87
2018-09-10T18:05:56.229Z,48.00
2018-09-10T18:08:25.111Z,47.67
2018-09-10T18:10:53.951Z,48.08
2018-09-10T18:13:22.902Z,47.83
2018-09-10T18:15:51.945Z,47.78
2018-09-10T18:18:20.797Z,48.08
2018-09-10T18:20:49.726Z,47.42
2018-09-10T18:23:18.622Z,47.15
2018-09-10T18:25:47.518Z,47.88
2018-09-10T18:28:16.448Z,47.45
2018-09-10T18:30:45.302Z,47.99
2018-09-10T18:33:14.201Z,48.08
2018-09-10T18:35:43.121Z,48.18
2018-09-10T18:38:12.802Z,48.85
2018-09-10T18:40:41.666Z,49.14
2018-09-10T18:43:10.569Z,48.90
2018-09-10T18:45:40.696Z,49.37
2018-09-10T18:48:09.569Z,49.02
2018-09-10T18:50:38.464Z,49.59
2018-09-10T18:53:08.007Z,49.09
2018-09-10T18:55:36.889Z,48.95
2018-09-10T18:58:07.058Z,49.19
2018-09-10T19:00:35.952Z,49.21
2018-09-10T19:03:06.241Z,48.44
2018-09-10T19:05:36.457Z,48.99
2018-09-10T19:08:05.455Z,49.23
2018-09-10T19:10:34.334Z,49.22
2018-09-10T19:13:04.654Z,49.45
2018-09-10T19:15:33.489Z,49.66
2018-09-10T19:18:02.906Z,50.30
2018-09-10T19:20:31.782Z,49.76
2018-09-10T19:23:00.656Z,49.92
2018-09-10T19:25:29.498Z,49.93
2018-09-10T19:27:58.367Z,50.24
2018-09-10T19:30:27.261Z,51.15
2018-09-10T19:32:56.198Z,51.77
2018-09-10T19:35:25.087Z,51.24
2018-09-10T19:37:53.946Z,51.57
2018-09-10T19:40:22.915Z,51.71
2018-09-10T19:42:51.777Z,52.42
2018-09-10T19:45:20.635Z,52.71
2018-09-10T19:47:49.526Z,52.92
2018-09-10T19:50:18.438Z,53.18
2018-09-10T19:52:47.330Z,53.60
2018-09-10T19:55:16.179Z,54.52
2018-09-10T19:57:45.109Z,54.75
2018-09-10T20:00:13.994Z,54.97
2018-09-10T20:02:42.861Z,55.05
2018-09-10T20:05:12.990Z,55.03
2018-09-10T20:07:41.875Z,55.68
2018-09-10T20:10:10.781Z,55.88
2018-09-10T20:12:41.127Z,56.03
2018-09-10T20:15:11.232Z,56.02
2018-09-10T20:17:40.113Z,56.03
2018-09-10T20:20:10.234Z,56.75
2018-09-10T20:22:39.162Z,56.58
2018-09-10T20:25:08.239Z,56.61
2018-09-10T20:27:38.579Z,56.70
2018-09-10T20:30:07.636Z,56.94
2018-09-10T20:32:36.525Z,57.54
2018-09-10T20:35:05.439Z,58.71
2018-09-10T20:37:34.278Z,58.70
2018-09-10T20:40:03.234Z,59.54
2018-09-10T20:42:33.332Z,59.83
2018-09-10T20:45:02.190Z,59.88
2018-09-10T20:47:31.177Z,59.91
2018-09-10T20:50:01.504Z,60.51
2018-09-10T20:52:30.337Z,59.82
2018-09-10T20:54:59.283Z,59.61
2018-09-10T20:57:28.116Z,59.83
2018-09-10T20:59:57.054Z,59.67
2018-09-10T21:02:27.201Z,59.11
2018-09-10T21:04:56.031Z,59.07
2018-09-10T21:07:24.942Z,58.96
2018-09-10T21:09:53.831Z,58.70
2018-09-10T21:12:22.777Z,58.20
2018-09-10T21:14:51.655Z,58.44
2018-09-10T21:17:20.517Z,58.84
2018-09-10T21:19:49.429Z,59.45
2018-09-10T21:22:18.274Z,59.60
2018-09-10T21:24:47.131Z,59.88
2018-09-10T21:27:16.003Z,60.15
2018-09-10T21:29:44.909Z,59.74
2018-09-10T21:32:13.748Z,58.81
2018-09-10T21:34:42.572Z,57.57
2018-09-10T21:37:11.407Z,57.25
2018-09-10T21:39:40.391Z,57.12
2018-09-10T21:42:09.247Z,57.81
2018-09-10T21:44:38.086Z,57.33
2018-09-10T21:47:07.125Z,57.75
2018-09-10T21:49:35.949Z,57.58
2018-09-10T21:52:04.790Z,57.54
2018-09-10T21:54:33.665Z,57.50
2018-09-10T21:57:02.521Z,58.30
2018-09-10T21:59:31.360Z,58.71
2018-09-10T22:02:00.220Z,58.45
2018-09-10T22:04:29.029Z,58.85
2018-09-10T22:06:57.903Z,58.46
2018-09-10T22:09:26.710Z,57.86
2018-09-10T22:12:00.701Z,57.90
2018-09-10T22:14:29.559Z,57.87
2018-09-10T22:16:58.396Z,58.21
2018-09-10T22:19:27.313Z,58.43
2018-09-10T22:21:56.140Z,58.25
2018-09-10T22:24:25.008Z,58.25
2018-09-10T22:26:55.279Z,59.41
2018-09-10T22:29:24.227Z,60.23
2018-09-10T22:31:53.125Z,61.68
2018-09-10T22:34:21.946Z,62.92
2018-09-10T22:36:51.423Z,63.19
2018-09-10T22:39:20.304Z,63.54
2018-09-10T22:41:49.125Z,62.17
2018-09-10T22:44:18.120Z,62.17
2018-09-10T22:46:46.867Z,60.89
2018-09-10T22:49:15.713Z,61.01
2018-09-10T22:51:45.783Z,60.86
2018-09-10T22:54:14.595Z,60.70
2018-09-10T22:56:43.408Z,61.43
2018-09-10T22:59:12.260Z,61.29
2018-09-10T23:01:41.088Z,61.35
2018-09-10T23:04:09.898Z,61.13
2018-09-10T23:06:38.759Z,61.48
2018-09-10T23:09:08.502Z,61.34
2018-09-10T23:11:37.720Z,61.36
2018-09-10T23:14:06.812Z,61.31
2018-09-10T23:16:35.738Z,61.81
2018-09-10T23:19:04.579Z,61.40
2018-09-10T23:21:33.441Z,61.27
2018-09-10T23:24:02.335Z,61.00
2018-09-10T23:26:31.172Z,61.37
2018-09-10T23:29:00.054Z,61.22
2018-09-10T23:31:28.874Z,61.41
2018-09-10T23:33:57.678Z,61.49
2018-09-10T23:36:26.538Z,62.00
2018-09-10T23:38:55.370Z,61.75
2018-09-10T23:41:24.185Z,61.88
2018-09-10T23:43:53.087Z,61.19
2018-09-10T23:46:21.949Z,61.38
2018-09-10T23:48:50.789Z,61.22
2018-09-10T23:51:19.654Z,60.98
2018-09-10T23:53:48.466Z,61.82
2018-09-10T23:56:17.322Z,61.33
2018-09-10T23:58:46.185Z,61.45
